Time;durP1;ratioP1;P1;durP2;ratioP2;P2;SDS_P1;SDS_P2;PMS_P1;PMS_P2;Temp;Humidity;BMP_temperature;BMP_pressure;BME280_temperature;BME280_humidity;BME280_pressure;Samples;Min_cycle;Max_cycle;Signal;HPM_P1;HPM_P2
2023/03/26 00:00:34;;;;;;;35.35;8.85;;;;;;;7.19;100.00;100716.56;5157452;27;20023;-78
2023/03/26 00:02:59;;;;;;;35.17;7.57;;;;;;;7.10;100.00;100709.31;5157153;27;20084;-79
2023/03/26 00:05:25;;;;;;;34.25;8.18;;;;;;;7.12;100.00;100721.19;5157402;27;20132;-76
2023/03/26 00:07:50;;;;;;;40.70;9.55;;;;;;;7.06;100.00;100718.91;5157222;27;20022;-75
2023/03/26 00:10:16;;;;;;;34.20;8.55;;;;;;;6.94;100.00;100714.38;5157211;27;20015;-78
2023/03/26 00:12:41;;;;;;;33.70;7.22;;;;;;;6.88;100.00;100728.38;5157007;27;20023;-77
2023/03/26 00:15:09;;;;;;;34.10;7.82;;;;;;;6.69;100.00;100713.94;5157003;27;20019;-79
2023/03/26 00:17:35;;;;;;;34.25;9.13;;;;;;;6.69;100.00;100719.09;5157191;27;20026;-79
2023/03/26 00:20:00;;;;;;;32.13;7.93;;;;;;;6.54;100.00;100715.50;5157146;27;20395;-79
2023/03/26 00:22:25;;;;;;;33.08;7.50;;;;;;;6.45;100.00;100715.94;5157229;27;20183;-78
2023/03/26 00:24:51;;;;;;;39.80;7.88;;;;;;;6.43;100.00;100722.88;5156867;27;20106;-80
2023/03/26 00:27:16;;;;;;;30.35;7.43;;;;;;;6.26;100.00;100703.16;5157017;27;20105;-76
2023/03/26 00:29:42;;;;;;;34.65;7.38;;;;;;;6.31;100.00;100725.13;5156789;27;20022;-77
2023/03/26 00:32:07;;;;;;;36.75;8.02;;;;;;;6.15;100.00;100706.22;5155344;27;20023;-74
2023/03/26 00:34:33;;;;;;;29.02;7.07;;;;;;;6.18;100.00;100718.06;5157029;27;20031;-76
2023/03/26 00:37:01;;;;;;;31.55;7.22;;;;;;;6.11;100.00;100714.97;5156947;27;20014;-74
2023/03/26 00:39:28;;;;;;;28.05;6.70;;;;;;;5.93;100.00;100682.50;5156625;27;20025;-75
2023/03/26 00:41:53;;;;;;;31.83;6.70;;;;;;;5.97;100.00;100684.81;5156612;27;20042;-76
2023/03/26 00:44:19;;;;;;;26.73;6.10;;;;;;;6.00;100.00;100692.41;5156536;27;20030;-79
2023/03/26 00:46:45;;;;;;;31.08;6.47;;;;;;;5.89;100.00;100686.03;5156473;27;20459;-79
2023/03/26 00:49:13;;;;;;;30.65;7.45;;;;;;;5.88;100.00;100686.94;5156333;27;20374;-75
2023/03/26 00:51:39;;;;;;;31.95;7.15;;;;;;;5.88;100.00;100686.94;5156499;27;20030;-75
2023/03/26 00:54:06;;;;;;;39.15;6.07;;;;;;;5.83;100.00;100694.84;5156441;27;20073;-80
2023/03/26 00:56:32;;;;;;;30.35;6.72;;;;;;;5.80;100.00;100692.44;5156386;27;20087;-75
2023/03/26 00:58:59;;;;;;;35.20;6.75;;;;;;;5.82;100.00;100698.31;5156386;27;20023;-74
2023/03/26 01:01:26;;;;;;;28.55;6.57;;;;;;;5.86;100.00;100674.22;5155235;27;20030;-77
2023/03/26 01:03:57;;;;;;;38.55;6.90;;;;;;;6.07;100.00;100686.97;5156087;27;20035;-74
2023/03/26 01:06:31;;;;;;;37.25;6.90;;;;;;;6.16;100.00;100687.38;5156231;27;20064;-74
2023/03/26 01:09:02;;;;;;;32.67;7.85;;;;;;;6.03;100.00;100648.66;5156272;27;20026;-74
2023/03/26 01:11:32;;;;;;;;;;;;;;;6.28;100.00;100671.41;5156493;27;20030;-74
2023/03/26 01:14:08;;;;;;;30.65;6.75;;;;;;;6.37;100.00;100662.44;5155906;27;19918;-75
2023/03/26 01:16:44;;;;;;;34.17;6.47;;;;;;;6.45;100.00;100660.34;5155924;27;20026;-76
2023/03/26 01:19:22;;;;;;;33.92;7.18;;;;;;;6.46;100.00;100650.91;5156021;27;20029;-74
2023/03/26 01:21:48;;;;;;;33.08;6.85;;;;;;;6.42;100.00;100647.69;5155915;27;20387;-76
2023/03/26 01:24:13;;;;;;;29.80;6.40;;;;;;;6.29;100.00;100644.88;5155679;27;20019;-76
2023/03/26 01:26:48;;;;;;;23.90;5.35;;;;;;;6.31;100.00;100645.63;5155689;27;20510;-74
2023/03/26 01:29:21;;;;;;;24.30;5.78;;;;;;;6.22;100.00;100647.81;5155686;27;20042;-75
2023/03/26 01:32:02;;;;;;;31.60;6.97;;;;;;;6.10;100.00;100633.00;5155666;27;20019;-74
2023/03/26 01:34:29;;;;;;;23.65;5.93;;;;;;;6.02;100.00;100641.88;5155769;27;20468;-75
2023/03/26 01:37:19;;;;;;;33.42;6.55;;;;;;;5.98;100.00;100627.53;5155591;27;20014;-76
2023/03/26 01:39:56;;;;;;;30.52;5.40;;;;;;;5.91;100.00;100626.19;5154135;27;20029;-73
2023/03/26 01:42:35;;;;;;;25.65;5.97;;;;;;;5.74;100.00;100592.78;5155422;27;20015;-74
2023/03/26 01:45:12;;;;;;;27.77;6.32;;;;;;;5.70;100.00;100593.81;5155449;27;20535;-73
2023/03/26 01:47:39;;;;;;;33.53;6.60;;;;;;;5.68;100.00;100596.44;5155333;27;20030;-72
2023/03/26 01:50:06;;;;;;;31.00;6.38;;;;;;;5.66;100.00;100605.94;5155391;27;20106;-73
2023/03/26 01:52:31;;;;;;;25.17;5.60;;;;;;;5.58;100.00;100599.50;5155009;27;20031;-73
2023/03/26 01:54:57;;;;;;;34.90;5.97;;;;;;;5.57;100.00;100605.53;5155330;27;20019;-73
2023/03/26 01:57:48;;;;;;;26.70;5.05;;;;;;;5.53;100.00;100606.59;5154922;27;20027;-74
2023/03/26 02:00:19;;;;;;;27.67;6.03;;;;;;;5.50;100.00;100601.59;5155116;27;20045;-73
2023/03/26 02:02:53;;;;;;;31.20;6.93;;;;;;;5.46;100.00;100599.19;5154375;27;20039;-74
2023/03/26 02:05:29;;;;;;;30.08;6.75;;;;;;;5.50;100.00;100593.91;5155026;27;20122;-74
2023/03/26 02:08:37;;;;;;;34.05;5.72;;;;;;;5.47;100.00;100593.16;5155112;27;20019;-74
2023/03/26 02:11:09;;;;;;;28.67;6.45;;;;;;;5.47;100.00;100582.91;5070759;28;20036;-74
2023/03/26 02:13:36;;;;;;;31.77;5.53;;;;;;;5.45;100.00;100582.16;5070853;28;20043;-74
2023/03/26 02:16:04;;;;;;;27.02;6.75;;;;;;;5.46;100.00;100588.09;5070843;28;20119;-74
2023/03/26 02:18:36;;;;;;;30.00;6.07;;;;;;;5.30;100.00;100556.41;5070969;28;20028;-74
2023/03/26 02:21:02;;;;;;;;;;;;;;;5.40;100.00;100568.72;5038428;28;20064;-74
2023/03/26 02:23:28;;;;;;;30.17;5.85;;;;;;;5.28;100.00;100546.25;5071107;28;20354;-74
2023/03/26 02:25:54;;;;;;;32.88;6.32;;;;;;;5.34;100.00;100555.38;5070492;28;20028;-74
2023/03/26 02:28:19;;;;;;;30.92;6.03;;;;;;;5.27;100.00;100549.69;5070619;28;20040;-74
2023/03/26 02:30:46;;;;;;;26.88;5.70;;;;;;;5.32;100.00;100560.56;5069790;28;20049;-75
2023/03/26 02:33:14;;;;;;;32.33;6.50;;;;;;;5.21;100.00;100534.63;5070590;28;20054;-75
2023/03/26 02:35:40;;;;;;;27.02;5.93;;;;;;;5.34;100.00;100552.81;5070619;28;20147;-74
2023/03/26 02:38:05;;;;;;;28.42;6.32;;;;;;;5.35;100.00;100546.78;5070379;28;20032;-74
2023/03/26 02:40:30;;;;;;;31.27;5.53;;;;;;;5.34;100.00;100555.38;5070403;28;20477;-74
2023/03/26 02:42:57;;;;;;;28.33;5.47;;;;;;;5.32;100.00;100552.91;5070554;28;20499;-74
2023/03/26 02:45:22;;;;;;;27.48;5.93;;;;;;;5.26;100.00;100539.53;5070527;28;20020;-74
2023/03/26 02:47:49;;;;;;;28.92;5.38;;;;;;;5.36;100.00;100540.78;5105144;27;20034;-74
2023/03/26 02:50:15;;;;;;;28.92;5.05;;;;;;;5.33;100.00;100544.31;5154438;27;20386;-72
2023/03/26 02:52:41;;;;;;;31.92;6.63;;;;;;;5.29;100.00;100527.41;5154123;27;20034;-72
2023/03/26 02:55:07;;;;;;;33.78;6.75;;;;;;;5.32;100.00;100524.72;5153182;27;20105;-75
2023/03/26 02:57:33;;;;;;;24.45;5.45;;;;;;;5.40;100.00;100530.31;5154371;27;20019;-74
2023/03/26 02:59:58;;;;;;;32.15;5.82;;;;;;;5.37;100.00;100517.66;5154596;27;20088;-74
2023/03/26 03:02:24;;;;;;;28.38;4.95;;;;;;;5.03;100.00;100451.84;5154168;27;20046;-74
2023/03/26 03:04:50;;;;;;;23.50;4.65;;;;;;;5.47;100.00;100521.44;5154225;27;20069;-74
2023/03/26 03:07:16;;;;;;;28.55;5.38;;;;;;;5.43;100.00;100512.25;5153970;27;20047;-76
2023/03/26 03:09:41;;;;;;;24.55;5.43;;;;;;;5.36;100.00;100492.94;5154286;27;20417;-74
2023/03/26 03:12:07;;;;;;;27.70;4.55;;;;;;;5.50;100.00;100507.66;5154164;27;20022;-74
2023/03/26 03:14:32;;;;;;;22.23;4.88;;;;;;;5.51;100.00;100504.22;5157080;27;20490;-74
2023/03/26 03:16:58;;;;;;;28.98;4.72;;;;;;;5.53;100.00;100501.59;5158402;27;20030;-75
2023/03/26 03:19:23;;;;;;;29.10;5.80;;;;;;;5.57;100.00;100492.84;5158237;27;20030;-75
2023/03/26 03:21:49;;;;;;;26.48;5.88;;;;;;;5.60;100.00;100483.28;5157944;27;20523;-74
2023/03/26 03:24:17;;;;;;;26.80;5.40;;;;;;;5.51;100.00;100465.81;5158458;27;20023;-75
2023/03/26 03:26:44;;;;;;;26.30;4.53;;;;;;;5.61;100.00;100472.16;5157992;27;20026;-74
2023/03/26 03:29:11;;;;;;;27.08;5.07;;;;;;;5.71;100.00;100480.22;5158250;27;20039;-74
2023/03/26 03:31:37;;;;;;;25.38;5.20;;;;;;;5.68;100.00;100459.84;5157906;27;20030;-75
2023/03/26 03:34:02;;;;;;;26.20;4.88;;;;;;;5.61;100.00;100443.97;5157663;27;20022;-74
2023/03/26 03:36:29;;;;;;;31.05;5.68;;;;;;;5.58;100.00;100438.97;5158274;27;20033;-75
2023/03/26 03:38:55;;;;;;;22.05;4.32;;;;;;;5.86;100.00;100469.22;5157739;27;20033;-74
2023/03/26 03:41:20;;;;;;;31.25;5.57;;;;;;;5.88;100.00;100467.41;5158015;27;20471;-76
2023/03/26 03:43:45;;;;;;;23.77;4.80;;;;;;;5.92;100.00;100461.25;5157880;27;20027;-75
2023/03/26 03:46:11;;;;;;;26.73;5.07;;;;;;;5.95;100.00;100462.84;5157789;27;20027;-74
2023/03/26 03:48:37;;;;;;;25.73;4.88;;;;;;;6.00;100.00;100458.31;5157698;27;20540;-75
2023/03/26 03:51:03;;;;;;;26.33;5.45;;;;;;;5.86;100.00;100437.63;5157626;27;20046;-76
2023/03/26 03:53:28;;;;;;;23.48;5.32;;;;;;;6.03;100.00;100446.19;5157506;27;20065;-74
2023/03/26 03:55:56;;;;;;;23.10;5.18;;;;;;;5.91;100.00;100425.47;5157682;27;20023;-74
2023/03/26 03:58:26;;;;;;;25.58;4.95;;;;;;;6.08;100.00;100450.22;5157664;27;20062;-74
2023/03/26 04:00:59;;;;;;;25.77;4.50;;;;;;;6.10;100.00;100444.16;5157566;27;20026;-77
2023/03/26 04:03:26;;;;;;;28.55;4.20;;;;;;;6.11;100.00;100445.78;5155397;27;20099;-77
2023/03/26 04:05:53;;;;;;;30.75;4.88;;;;;;;6.15;100.00;100433.63;5157471;27;20122;-80
2023/03/26 04:08:23;;;;;;;20.00;5.00;;;;;;;6.16;100.00;100432.72;5155655;27;20035;-77
2023/03/26 04:10:49;;;;;;;25.02;4.80;;;;;;;6.20;100.00;100431.69;5157403;27;20418;-74
2023/03/26 04:13:15;;;;;;;29.67;5.30;;;;;;;6.18;100.00;100420.66;5157266;27;20360;-74
2023/03/26 04:15:41;;;;;;;19.20;4.75;;;;;;;6.22;100.00;100420.44;5157183;27;20075;-75
2023/03/26 04:18:10;;;;;;;17.85;4.32;;;;;;;5.95;100.00;100375.69;5157139;27;20427;-74
2023/03/26 04:20:37;;;;;;;24.77;4.50;;;;;;;6.18;100.00;100410.41;5157072;27;20513;-75
2023/03/26 04:23:03;;;;;;;23.88;4.97;;;;;;;6.19;100.00;100401.81;5157039;27;20030;-80
2023/03/26 04:25:32;;;;;;;19.38;3.97;;;;;;;6.10;100.00;100377.50;5156627;27;20109;-80
2023/03/26 04:28:00;;;;;;;18.98;3.78;;;;;;;6.29;100.00;100395.28;5156954;27;20015;-80
2023/03/26 04:30:26;;;;;;;16.65;4.10;;;;;;;6.23;100.00;100380.25;5156719;27;20034;-80
2023/03/26 04:32:51;;;;;;;24.90;4.45;;;;;;;6.21;100.00;100361.56;5156771;27;20019;-80
2023/03/26 04:35:18;;;;;;;14.80;3.80;;;;;;;6.19;100.00;100363.34;5156917;27;20031;-79
2023/03/26 04:37:44;;;;;;;18.65;3.65;;;;;;;6.31;100.00;100384.06;5156820;27;20151;-79
2023/03/26 04:40:19;;;;;;;21.48;3.75;;;;;;;6.25;100.00;100371.56;5156867;27;20046;-80
2023/03/26 04:42:45;;;;;;;17.25;3.92;;;;;;;6.16;100.00;100348.94;5156554;27;20051;-74
2023/03/26 04:45:11;;;;;;;20.42;4.38;;;;;;;6.27;100.00;100372.28;5156510;27;20022;-74
2023/03/26 04:47:37;;;;;;;17.08;4.30;;;;;;;6.17;100.00;100345.47;5156654;27;20022;-74
2023/03/26 04:50:05;;;;;;;20.35;3.83;;;;;;;6.30;100.00;100363.63;5156499;27;20023;-74
2023/03/26 04:52:31;;;;;;;16.42;3.88;;;;;;;6.29;100.00;100354.25;5156661;27;20023;-75
2023/03/26 04:54:57;;;;;;;16.90;4.50;;;;;;;6.29;100.00;100355.13;5156541;27;20038;-74
2023/03/26 04:57:38;;;;;;;16.65;3.88;;;;;;;6.29;100.00;100349.13;5156228;27;20053;-74
2023/03/26 05:00:13;;;;;;;14.63;3.92;;;;;;;6.28;100.00;100340.63;5156143;27;20526;-74
2023/03/26 05:02:40;;;;;;;21.63;4.50;;;;;;;6.12;100.00;100305.63;5156088;27;20396;-75
2023/03/26 05:05:06;;;;;;;18.95;4.70;;;;;;;6.29;100.00;100336.31;5156162;27;20019;-74
2023/03/26 05:07:32;;;;;;;18.52;5.10;;;;;;;6.20;100.00;100316.31;5156352;27;20379;-74
2023/03/26 05:09:57;;;;;;;16.67;3.40;;;;;;;6.30;100.00;100331.13;5156198;27;20539;-74
2023/03/26 05:12:22;;;;;;;16.02;3.58;;;;;;;6.23;100.00;100314.41;5155704;27;20023;-74
2023/03/26 05:14:48;;;;;;;17.95;3.63;;;;;;;6.21;100.00;100313.66;5156029;27;20034;-74
2023/03/26 05:17:17;;;;;;;18.60;3.80;;;;;;;6.31;100.00;100326.81;5155929;27;20084;-75
2023/03/26 05:19:43;;;;;;;13.18;3.92;;;;;;;6.23;100.00;100306.72;5156005;27;20052;-75
2023/03/26 05:22:09;;;;;;;19.67;4.55;;;;;;;6.26;100.00;100316.78;5155923;27;20467;-75
2023/03/26 05:24:34;;;;;;;21.02;4.05;;;;;;;6.29;100.00;100302.97;5155934;27;20026;-75
2023/03/26 05:27:00;;;;;;;14.40;4.07;;;;;;;6.27;100.00;100304.81;5155641;27;20023;-75
2023/03/26 05:29:25;;;;;;;18.30;4.78;;;;;;;6.27;100.00;100307.38;5155732;27;20026;-75
2023/03/26 05:31:51;;;;;;;14.23;4.18;;;;;;;6.20;100.00;100299.19;5155533;27;20014;-75
2023/03/26 05:34:16;;;;;;;21.38;4.95;;;;;;;6.16;100.00;100272.03;5155699;27;20079;-74
2023/03/26 05:36:42;;;;;;;14.88;4.60;;;;;;;6.32;100.00;100305.41;5154767;27;20019;-74
2023/03/26 05:39:08;;;;;;;15.65;4.28;;;;;;;6.33;100.00;100302.75;5155695;27;20369;-74
2023/03/26 05:41:34;;;;;;;16.88;4.88;;;;;;;6.36;100.00;100295.78;5155286;27;20064;-74
2023/03/26 05:43:59;;;;;;;17.00;4.53;;;;;;;6.35;100.00;100289.84;5155290;27;20030;-74
2023/03/26 05:46:26;;;;;;;17.65;3.88;;;;;;;6.31;100.00;100284.06;5154940;27;20371;-74
2023/03/26 05:48:52;;;;;;;12.98;4.30;;;;;;;6.38;100.00;100286.28;5154851;27;20019;-74
2023/03/26 05:51:19;;;;;;;15.05;4.07;;;;;;;6.38;100.00;100288.84;5154889;27;20026;-74
2023/03/26 05:53:44;;;;;;;18.45;4.95;;;;;;;6.18;100.00;100252.28;5155141;27;20046;-76
2023/03/26 05:56:10;;;;;;;19.27;5.05;;;;;;;6.39;100.00;100278.53;5154738;27;20467;-74
2023/03/26 05:58:36;;;;;;;18.50;4.00;;;;;;;6.33;100.00;100268.59;5154857;27;20089;-74
2023/03/26 06:01:07;;;;;;;16.42;4.60;;;;;;;6.31;100.00;100260.16;5154939;27;20075;-74
2023/03/26 06:03:38;;;;;;;15.55;3.83;;;;;;;6.32;100.00;100254.13;5154651;27;20043;-74
2023/03/26 06:06:08;;;;;;;16.38;5.00;;;;;;;6.44;100.00;100275.69;5153570;27;20022;-76
2023/03/26 06:08:33;;;;;;;18.90;5.25;;;;;;;6.48;100.00;100272.84;5154584;27;20025;-75
2023/03/26 06:11:06;;;;;;;12.27;3.80;;;;;;;6.48;100.00;100265.16;5154787;27;20022;-75
2023/03/26 06:13:31;;;;;;;18.27;4.53;;;;;;;6.43;100.00;100256.91;5154639;27;20027;-74
2023/03/26 06:15:57;;;;;;;16.90;4.40;;;;;;;6.54;100.00;100266.59;5154633;27;20030;-74
2023/03/26 06:18:23;;;;;;;14.68;3.60;;;;;;;6.52;100.00;100258.16;5154482;27;20106;-74
2023/03/26 06:20:49;;;;;;;19.45;4.28;;;;;;;6.42;100.00;100232.19;5153510;27;20172;-74
2023/03/26 06:23:16;;;;;;;19.92;4.50;;;;;;;6.59;100.00;100255.16;5154566;27;20026;-73
2023/03/26 06:25:43;;;;;;;19.58;4.60;;;;;;;6.61;100.00;100250.78;5154647;27;20055;-73
2023/03/26 06:28:08;;;;;;;12.65;3.65;;;;;;;6.48;100.00;100231.00;5152980;27;20031;-73
2023/03/26 06:30:34;;;;;;;22.70;5.47;;;;;;;6.66;100.00;100250.50;5154446;27;20375;-73
2023/03/26 06:32:59;;;;;;;15.18;4.03;;;;;;;6.67;100.00;100246.19;5154281;27;20076;-74
2023/03/26 06:35:25;;;;;;;16.17;4.47;;;;;;;6.66;100.00;100247.09;5154247;27;20037;-74
2023/03/26 06:37:50;;;;;;;17.33;4.63;;;;;;;6.68;100.00;100248.66;5154143;27;20022;-75
2023/03/26 06:40:16;;;;;;;18.52;4.50;;;;;;;6.69;100.00;100244.38;5154227;27;20030;-75
2023/03/26 06:42:41;;;;;;;15.95;4.63;;;;;;;6.67;100.00;100229.06;5153990;27;20034;-76
2023/03/26 06:45:07;;;;;;;19.75;5.10;;;;;;;6.58;100.00;100220.13;5153851;27;20050;-73
2023/03/26 06:50:10;;;;;;;15.40;4.50;;;;;;;6.74;100.00;100247.50;5110354;22;20058;-74
2023/03/26 06:52:36;;;;;;;14.43;4.30;;;;;;;6.54;100.00;100218.66;5087379;28;20028;-75
2023/03/26 06:55:02;;;;;;;20.02;4.68;;;;;;;6.44;100.00;100194.44;5072271;28;20035;-74
2023/03/26 06:57:27;;;;;;;20.05;5.13;;;;;;;6.59;100.00;100215.84;5072332;28;20527;-75
2023/03/26 06:59:52;;;;;;;14.13;4.30;;;;;;;6.68;100.00;100229.88;5072329;28;20024;-74
2023/03/26 07:02:18;;;;;;;16.40;4.32;;;;;;;6.61;100.00;100225.13;5072245;28;20473;-75
2023/03/26 07:04:43;;;;;;;12.82;4.55;;;;;;;6.59;100.00;100221.00;5238755;22;20059;-73
2023/03/26 07:07:09;;;;;;;20.00;4.68;;;;;;;6.75;100.00;100237.16;5071996;28;20104;-74
2023/03/26 07:09:34;;;;;;;15.05;4.18;;;;;;;6.76;100.00;100236.25;5072190;28;20029;-75
2023/03/26 07:12:00;;;;;;;19.88;4.30;;;;;;;6.75;100.00;100226.88;5072208;28;20039;-75
2023/03/26 07:14:29;;;;;;;17.42;4.65;;;;;;;6.78;100.00;100224.13;5071925;28;20044;-76
2023/03/26 07:16:56;;;;;;;13.95;4.30;;;;;;;6.86;100.00;100239.09;5071875;28;20363;-76
2023/03/26 07:19:22;;;;;;;20.30;4.78;;;;;;;6.77;100.00;100207.09;5071689;28;20083;-75
2023/03/26 07:21:48;;;;;;;16.88;4.55;;;;;;;6.83;100.00;100205.94;5072082;28;20025;-74
2023/03/26 07:24:16;;;;;;;19.42;4.70;;;;;;;6.87;100.00;100197.13;5070730;28;20440;-72
2023/03/26 07:26:53;;;;;;;15.70;4.88;;;;;;;6.94;100.00;100213.84;5072531;28;20032;-74
2023/03/26 07:29:33;;;;;;;14.05;4.55;;;;;;;7.02;100.00;100219.34;5071813;28;20035;-73
2023/03/26 07:32:18;;;;;;;16.10;5.80;;;;;;;7.00;100.00;100210.09;5053595;28;20055;-72
2023/03/26 07:35:00;;;;;;;16.58;4.43;;;;;;;7.09;100.00;100214.72;5071943;28;20110;-74
2023/03/26 07:37:44;;;;;;;15.65;4.30;;;;;;;7.10;100.00;100212.03;5053746;28;20036;-74
2023/03/26 07:40:33;;;;;;;17.27;4.55;;;;;;;7.10;100.00;100213.78;5071300;28;20500;-71
2023/03/26 07:43:37;;;;;;;14.82;4.18;;;;;;;7.12;100.00;100211.94;5029364;28;20140;-73
2023/03/26 07:46:03;;;;;;;13.68;4.38;;;;;;;7.12;100.00;100207.63;5028902;28;20040;-75
2023/03/26 07:48:39;;;;;;;14.40;4.90;;;;;;;7.03;100.00;100182.50;5029395;28;20112;-75
2023/03/26 07:51:05;;;;;;;15.52;5.07;;;;;;;7.06;100.00;100191.75;5029584;28;20025;-77
2023/03/26 07:53:31;;;;;;;12.77;4.47;;;;;;;7.00;100.00;100175.00;5029485;28;20046;-76
2023/03/26 07:56:14;;;;;;;15.55;5.15;;;;;;;7.19;100.00;100203.81;5029521;28;20049;-76
2023/03/26 07:58:55;;;;;;;13.05;4.72;;;;;;;7.15;100.00;100202.31;5025805;28;20037;-76
2023/03/26 08:01:44;;;;;;;16.08;5.85;;;;;;;7.12;100.00;100197.38;5012647;28;20049;-78
2023/03/26 08:04:36;;;;;;;18.58;5.30;;;;;;;7.13;100.00;100199.00;5013359;28;20045;-79
2023/03/26 08:07:10;;;;;;;14.65;5.53;;;;;;;7.02;100.00;100177.47;5013210;28;20084;-79
2023/03/26 08:10:15;;;;;;;16.45;5.60;;;;;;;7.19;100.00;100205.53;5013142;28;20026;-78
2023/03/26 08:13:11;;;;;;;15.23;5.22;;;;;;;7.19;100.00;100200.41;5013280;28;20477;-79
2023/03/26 08:15:42;;;;;;;14.35;5.05;;;;;;;7.05;100.00;100184.97;5012905;28;20025;-79
2023/03/26 08:18:49;;;;;;;14.25;4.95;;;;;;;7.19;100.00;100196.09;5012884;28;20030;-78
2023/03/26 08:21:25;;;;;;;13.88;4.97;;;;;;;7.16;100.00;100198.81;4954399;29;20035;-79
2023/03/26 08:24:09;;;;;;;12.57;5.32;;;;;;;7.14;100.00;100194.72;4954604;29;20035;-78
2023/03/26 08:27:07;;;;;;;11.20;5.55;;;;;;;7.16;100.00;100195.44;4954629;29;20043;-78
2023/03/26 08:29:43;;;;;;;16.20;6.10;;;;;;;7.22;100.00;100194.25;4954376;29;20066;-77
2023/03/26 08:32:15;;;;;;;15.10;5.50;;;;;;;7.24;100.00;100193.25;4954469;29;20478;-79
2023/03/26 08:34:40;;;;;;;11.98;5.20;;;;;;;7.10;100.00;100165.00;4954544;29;20027;-79
2023/03/26 08:37:06;;;;;;;18.00;5.05;;;;;;;7.22;100.00;100186.56;4954459;29;20043;-75
2023/03/26 08:39:32;;;;;;;15.07;5.60;;;;;;;7.25;100.00;100191.50;4954322;29;20472;-74
2023/03/26 08:42:55;;;;;;;15.50;5.32;;;;;;;7.30;100.00;100200.59;4954362;29;20049;-74
2023/03/26 08:45:50;;;;;;;14.20;5.65;;;;;;;7.37;100.00;100195.91;4917880;29;20059;-75
2023/03/26 08:48:33;;;;;;;17.67;6.30;;;;;;;7.41;100.00;100198.22;4935034;29;20158;-76
2023/03/26 08:51:02;;;;;;;15.95;5.57;;;;;;;7.45;100.00;100194.53;4934821;29;20040;-75
2023/03/26 08:53:39;;;;;;;17.58;6.10;;;;;;;7.55;100.00;100191.41;4934743;29;20036;-75
2023/03/26 08:56:19;;;;;;;16.70;6.55;;;;;;;7.62;100.00;100187.56;4934942;29;20035;-74
2023/03/26 08:59:06;;;;;;;14.93;5.50;;;;;;;7.62;100.00;100188.38;4961595;28;20129;-76
2023/03/26 09:01:46;;;;;;;18.27;6.10;;;;;;;7.74;100.00;100186.81;4973185;28;20039;-75
2023/03/26 09:04:39;;;;;;;14.98;5.78;;;;;;;7.83;100.00;100188.81;4973041;28;20534;-75
2023/03/26 09:12:44;;;;;;;13.70;5.80;;;;;;;7.93;100.00;100179.59;5112819;28;20043;-76
2023/03/26 09:15:29;;;;;;;13.48;5.00;;;;;;;7.93;100.00;100179.59;5113145;28;20031;-77
2023/03/26 09:18:09;;;;;;;12.77;5.00;;;;;;;7.90;100.00;100177.22;5112914;28;20107;-75
2023/03/26 09:20:59;;;;;;;10.43;4.55;;;;;;;7.85;100.00;100175.84;5114481;28;20024;-75
2023/03/26 09:23:42;;;;;;;13.52;4.55;;;;;;;7.80;100.00;100183.88;5114123;28;20106;-75
2023/03/26 09:26:38;;;;;;;13.07;5.00;;;;;;;7.81;100.00;100171.84;5114355;28;20023;-75
2023/03/26 09:29:37;;;;;;;11.85;4.40;;;;;;;7.88;100.00;100173.13;5114184;28;20027;-74
2023/03/26 09:32:45;;;;;;;11.57;4.72;;;;;;;7.82;100.00;100166.59;5112008;28;20063;-72
2023/03/26 09:35:29;;;;;;;11.82;4.30;;;;;;;7.86;100.00;100172.38;5092405;28;20036;-74
2023/03/26 09:38:10;;;;;;;12.40;4.82;;;;;;;8.01;100.00;100174.00;5093652;28;20024;-74
2023/03/26 09:40:43;;;;;;;10.32;4.47;;;;;;;8.11;100.00;100162.19;5093373;28;20107;-74
2023/03/26 09:43:26;;;;;;;11.32;4.45;;;;;;;8.16;100.00;100169.63;5092960;28;20020;-73
2023/03/26 09:46:12;;;;;;;11.82;4.40;;;;;;;8.23;100.00;100160.59;5106248;28;20114;-76
2023/03/26 09:49:00;;;;;;;10.50;4.15;;;;;;;8.40;100.00;100175.00;5113687;28;20030;-77
2023/03/26 09:51:46;;;;;;;8.63;3.90;;;;;;;8.54;100.00;100165.44;5113993;28;20098;-75
2023/03/26 09:54:47;;;;;;;9.32;3.88;;;;;;;8.60;100.00;100169.38;5113634;28;20118;-74
2023/03/26 09:57:41;;;;;;;9.35;3.53;;;;;;;8.70;100.00;100165.28;5113952;28;20081;-76
2023/03/26 10:00:32;;;;;;;11.05;4.50;;;;;;;8.77;100.00;100165.72;5113631;28;20028;-75
2023/03/26 10:03:09;;;;;;;8.77;3.80;;;;;;;8.75;100.00;100167.53;5113496;28;20066;-75
2023/03/26 10:05:40;;;;;;;7.90;2.92;;;;;;;8.83;100.00;100171.25;5113583;28;20039;-74
2023/03/26 10:08:19;;;;;;;6.10;2.60;;;;;;;8.96;100.00;100168.72;5113806;28;20051;-75
2023/03/26 10:10:55;;;;;;;8.23;3.33;;;;;;;9.11;100.00;100172.00;5113433;28;20047;-75
2023/03/26 10:13:25;;;;;;;6.88;2.20;;;;;;;9.09;100.00;100171.28;5113169;28;20028;-76
2023/03/26 10:15:57;;;;;;;7.20;2.00;;;;;;;9.02;100.00;100178.59;5112980;28;20077;-76
2023/03/26 10:18:41;;;;;;;6.97;2.40;;;;;;;8.89;100.00;100173.44;5113370;27;20410;-76
2023/03/26 10:21:41;;;;;;;7.85;2.60;;;;;;;8.75;100.00;100167.53;5113117;28;20028;-75
2023/03/26 10:24:45;;;;;;;9.02;2.90;;;;;;;8.75;100.00;100168.38;5070156;28;20044;-76
2023/03/26 10:27:38;;;;;;;5.00;2.25;;;;;;;8.70;100.00;100175.56;5069910;28;20098;-74
2023/03/26 10:30:15;;;;;;;6.60;1.73;;;;;;;8.50;100.00;100174.28;5070197;28;20029;-73
2023/03/26 10:33:00;;;;;;;3.40;1.83;;;;;;;8.24;100.00;100183.63;5070183;28;20429;-76
2023/03/26 10:35:28;;;;;;;5.38;2.22;;;;;;;8.13;100.00;100175.78;5070085;28;20036;-75
2023/03/26 10:38:05;;;;;;;8.27;2.75;;;;;;;8.06;100.00;100177.09;5070297;28;20132;-75
2023/03/26 10:40:41;;;;;;;6.15;2.78;;;;;;;8.12;100.00;100181.03;5070354;28;20367;-75
2023/03/26 10:43:39;;;;;;;7.35;3.00;;;;;;;8.10;100.00;100181.13;5078840;22;20050;-75
2023/03/26 10:46:34;;;;;;;7.00;2.85;;;;;;;8.11;100.00;100169.91;5112958;28;20032;-74
2023/03/26 10:49:26;;;;;;;7.45;3.38;;;;;;;8.15;100.00;100178.25;5112816;28;20028;-75
2023/03/26 10:51:57;;;;;;;7.32;3.95;;;;;;;8.14;100.00;100176.59;5112850;28;20035;-76
2023/03/26 10:54:32;;;;;;;10.60;3.50;;;;;;;8.34;100.00;100179.59;5112577;28;20016;-75
2023/03/26 10:57:01;;;;;;;7.38;3.53;;;;;;;8.46;100.00;100190.03;5112697;28;20031;-76
2023/03/26 10:59:27;;;;;;;8.00;3.30;;;;;;;8.50;100.00;100189.72;5112907;28;20027;-73
2023/03/26 11:02:18;;;;;;;6.38;2.88;;;;;;;8.40;100.00;100183.53;5112825;28;20036;-75
2023/03/26 11:04:55;;;;;;;8.87;4.23;;;;;;;8.25;100.00;100190.44;5112645;28;20027;-75
2023/03/26 11:07:36;;;;;;;11.82;3.85;;;;;;;8.23;100.00;100192.28;5112567;28;20024;-76
2023/03/26 11:10:10;;;;;;;8.07;3.42;;;;;;;8.06;100.00;100177.09;5112787;28;20525;-75
2023/03/26 11:12:55;;;;;;;8.90;3.20;;;;;;;8.14;100.00;100192.03;5112128;28;20056;-75
2023/03/26 11:15:41;;;;;;;7.20;3.33;;;;;;;8.20;100.00;100196.81;5112236;28;20020;-74
2023/03/26 11:18:38;;;;;;;6.25;2.50;;;;;;;8.08;100.00;100197.59;5111819;28;20533;-79
2023/03/26 11:21:18;;;;;;;8.07;3.95;;;;;;;8.05;100.00;100201.97;5112368;28;20027;-79
2023/03/26 11:24:20;;;;;;;9.23;3.78;;;;;;;8.09;100.00;100212.91;5112691;28;20031;-76
2023/03/26 11:27:01;;;;;;;6.60;3.00;;;;;;;7.86;100.00;100162.91;5112452;28;20126;-77
2023/03/26 11:29:45;;;;;;;8.68;4.70;;;;;;;8.09;100.00;100194.09;5111972;28;20073;-79
2023/03/26 11:32:14;;;;;;;8.43;3.38;;;;;;;8.26;100.00;100212.69;5112048;28;20046;-77
2023/03/26 11:35:04;;;;;;;7.22;3.70;;;;;;;8.29;100.00;100220.19;5113881;28;20028;-76
2023/03/26 11:37:42;;;;;;;8.57;3.25;;;;;;;8.30;100.00;100216.69;5116112;28;20070;-78
2023/03/26 11:40:20;;;;;;;7.38;3.15;;;;;;;8.25;100.00;100208.44;5116291;28;20030;-78
2023/03/26 11:42:48;;;;;;;5.50;2.53;;;;;;;8.30;100.00;100215.88;5116148;28;20046;-78
2023/03/26 11:45:20;;;;;;;6.55;2.60;;;;;;;8.31;100.00;100220.09;5115740;28;20545;-77
2023/03/26 11:47:55;;;;;;;5.30;3.20;;;;;;;8.26;100.00;100220.41;5116074;28;20024;-76
2023/03/26 11:50:25;;;;;;;5.82;2.85;;;;;;;8.20;100.00;100222.53;5097488;28;20038;-77
2023/03/26 11:52:52;;;;;;;5.83;2.50;;;;;;;8.12;100.00;100220.44;5097164;28;20075;-77